< Typhoon 195109 1951 Season Typhoon 195111 >
Typhoon 195110 (NO-NAME)
General InformationTrack Information on Google Maps || NewsDisaster Info.ResourceGoogle EarthGE AnimationAtom FeedGeoJSON
Detalied Best Track (Time Zone = UTC)
Year Month Day Hour Lat. Long. Pressure (hPa) Wind (kt) Class Image Chart
1951 8 9 00 10.0 136.0 1006 0 2 -- Chart
1951 8 9 06 11.0 134.5 1004 0 2 -- Chart
1951 8 9 12 12.6 133.5 1000 0 2 -- Chart
1951 8 9 18 13.5 132.3 995 0 2 -- Chart
1951 8 10 00 14.0 131.0 991 0 9 -- Chart
1951 8 10 06 14.6 130.0 989 0 9 -- Chart
1951 8 10 12 15.0 129.0 991 0 9 -- Chart
1951 8 10 18 15.4 127.6 995 0 9 -- Chart
1951 8 11 00 16.0 126.0 997 0 2 -- Chart
1951 8 11 06 17.3 124.3 999 0 2 -- Chart
1951 8 11 12 18.3 122.9 999 0 2 -- Chart
1951 8 11 18 19.0 121.0 999 0 2 -- Chart
1951 8 12 00 20.0 120.0 999 0 2 -- Chart
1951 8 12 06 20.5 119.8 998 0 2 -- Chart
1951 8 12 12 20.9 119.7 997 0 2 -- Chart
1951 8 12 18 21.3 119.7 995 0 2 -- Chart
1951 8 13 00 21.8 119.5 993 0 2 -- Chart
1951 8 13 06 22.2 119.3 992 0 2 -- Chart
1951 8 13 12 22.5 119.3 990 0 2 -- Chart
1951 8 13 18 22.7 119.0 990 0 2 -- Chart
1951 8 14 00 23.0 118.8 991 0 2 -- Chart
1951 8 14 06 23.3 118.2 992 0 2 -- Chart
1951 8 14 12 23.2 117.6 993 0 2 -- Chart
1951 8 14 18 23.0 116.9 993 0 2 -- Chart
1951 8 15 00 22.8 116.2 994 0 2 -- Chart
1951 8 15 06 22.7 115.7 995 0 2 -- Chart
1951 8 15 12 22.5 115.2 995 0 2 -- Chart
1951 8 15 18 22.3 114.6 995 0 2 -- Chart
1951 8 16 00 22.2 114.1 995 0 2 -- Chart
1951 8 16 06 22.0 113.5 994 0 2 -- Chart
1951 8 16 12 21.8 112.9 993 0 2 -- Chart
1951 8 16 18 21.7 112.4 993 0 2 -- Chart
1951 8 17 00 21.5 111.9 994 0 2 -- Chart
1951 8 17 06 21.3 111.5 994 0 2 -- Chart
1951 8 17 12 21.1 111.3 995 0 2 -- Chart
1951 8 17 18 21.0 110.8 995 0 2 -- Chart
1951 8 18 00 20.8 110.5 996 0 2 -- Chart
1951 8 18 06 20.7 110.0 996 0 2 -- Chart
1951 8 18 12 20.7 109.5 997 0 2 -- Chart
1951 8 18 18 20.6 109.0 997 0 2 -- Chart
1951 8 19 00 20.7 108.6 999 0 2 -- Chart
1951 8 19 06 21.0 108.2 1000 0 2 -- Chart
Japan Meteorological Agency Best Track Data | Correction Date : 1989-06-01
< Typhoon 195109 1951 Season Typhoon 195111 >

Help